createdAt,value
2022-11-14T00:01:13.008Z,1.10
2022-11-14T00:03:39.950Z,1.33
2022-11-14T00:06:07.579Z,1.10
2022-11-14T00:08:34.565Z,1.88
2022-11-14T00:11:01.702Z,1.17
2022-11-14T00:13:28.523Z,0.65
2022-11-14T00:15:55.343Z,1.23
2022-11-14T00:18:22.456Z,1.45
2022-11-14T00:20:50.519Z,0.77
2022-11-14T00:23:17.715Z,0.82
2022-11-14T00:25:46.209Z,0.80
2022-11-14T00:28:13.426Z,0.77
2022-11-14T00:30:40.312Z,1.00
2022-11-14T00:33:07.123Z,0.93
2022-11-14T00:35:33.945Z,1.00
2022-11-14T00:38:01.053Z,1.75
2022-11-14T00:40:27.847Z,1.40
2022-11-14T00:42:54.819Z,1.42
2022-11-14T00:45:21.929Z,1.10
2022-11-14T00:47:48.769Z,0.90
2022-11-14T00:50:16.923Z,1.92
2022-11-14T00:52:43.710Z,1.42
2022-11-14T00:55:10.520Z,1.00
2022-11-14T00:57:37.276Z,1.33
2022-11-14T01:00:05.417Z,1.38
2022-11-14T01:02:32.265Z,1.90
2022-11-14T01:04:59.043Z,1.95
2022-11-14T01:07:25.934Z,1.58
2022-11-14T01:09:52.744Z,1.42
2022-11-14T01:12:19.578Z,1.45
2022-11-14T01:14:46.376Z,1.33
2022-11-14T01:17:13.276Z,1.13
2022-11-14T01:19:40.572Z,2.03
2022-11-14T01:22:07.351Z,1.55
2022-11-14T01:24:34.858Z,1.55
2022-11-14T01:27:02.099Z,1.48
2022-11-14T01:29:28.967Z,3.20
2022-11-14T01:31:56.952Z,2.58
2022-11-14T01:34:23.910Z,3.92
2022-11-14T01:36:50.778Z,3.28
2022-11-14T01:39:17.573Z,4.15
2022-11-14T01:41:44.387Z,2.28
2022-11-14T01:44:16.655Z,3.40
2022-11-14T01:46:48.440Z,8.02
2022-11-14T01:49:15.237Z,8.35
2022-11-14T01:51:48.721Z,8.90
2022-11-14T01:54:28.152Z,11.30
2022-11-14T01:57:02.533Z,9.48
2022-11-14T01:59:38.468Z,7.85
2022-11-14T02:02:16.075Z,7.80
2022-11-14T02:04:50.682Z,12.98
2022-11-14T02:07:18.679Z,11.35
2022-11-14T02:09:47.302Z,10.45
2022-11-14T02:12:17.352Z,10.93
2022-11-14T02:14:46.360Z,9.45
2022-11-14T02:17:29.044Z,9.57
2022-11-14T02:20:05.275Z,8.30
2022-11-14T02:22:32.778Z,9.68
2022-11-14T02:24:59.582Z,10.75
2022-11-14T02:27:26.939Z,11.15
2022-11-14T02:29:53.754Z,9.32
2022-11-14T02:32:20.555Z,9.20
2022-11-14T02:34:47.336Z,7.30
2022-11-14T02:37:16.949Z,8.45
2022-11-14T02:39:43.681Z,10.52
2022-11-14T02:42:10.508Z,11.77
2022-11-14T02:44:37.378Z,9.38
2022-11-14T02:47:04.211Z,6.18
2022-11-14T02:49:31.124Z,6.28
2022-11-14T02:51:57.931Z,5.15
2022-11-14T02:54:24.693Z,4.63
2022-11-14T02:56:51.451Z,3.28
2022-11-14T02:59:18.416Z,4.03
2022-11-14T03:01:45.437Z,3.80
2022-11-14T03:04:12.281Z,3.38
2022-11-14T03:06:39.073Z,3.97
2022-11-14T03:09:05.968Z,3.95
2022-11-14T03:11:32.715Z,3.40
2022-11-14T03:14:00.350Z,3.35
2022-11-14T03:16:27.220Z,4.15
2022-11-14T03:18:53.993Z,4.50
2022-11-14T03:21:24.263Z,4.25
2022-11-14T03:23:51.035Z,3.38
2022-11-14T03:26:17.838Z,3.85
2022-11-14T03:28:44.659Z,3.80
2022-11-14T03:31:12.983Z,3.42
2022-11-14T03:33:39.777Z,2.58
2022-11-14T03:36:07.316Z,2.30
2022-11-14T03:38:34.674Z,3.83
2022-11-14T03:41:01.665Z,3.03
2022-11-14T03:43:32.524Z,2.47
2022-11-14T03:46:00.747Z,3.35
2022-11-14T03:48:29.273Z,3.20
2022-11-14T03:50:56.486Z,4.68
2022-11-14T03:53:23.465Z,2.63
2022-11-14T03:55:51.406Z,3.97
2022-11-14T03:58:18.395Z,3.63
2022-11-14T04:00:45.265Z,4.78
2022-11-14T04:03:12.068Z,8.30
2022-11-14T04:05:38.878Z,7.40
2022-11-14T04:08:06.606Z,8.15
2022-11-14T04:10:33.472Z,8.27
2022-11-14T04:13:00.328Z,9.88
2022-11-14T04:15:27.047Z,9.00
2022-11-14T04:17:53.918Z,8.82
2022-11-14T04:20:20.761Z,13.10
2022-11-14T04:22:47.543Z,9.85
2022-11-14T04:25:14.401Z,6.25
2022-11-14T04:27:41.201Z,11.70
2022-11-14T04:30:08.569Z,10.88
2022-11-14T04:32:35.331Z,11.02
2022-11-14T04:35:02.122Z,8.75
2022-11-14T04:37:28.860Z,6.60
2022-11-14T04:39:58.859Z,11.00
2022-11-14T04:42:26.097Z,10.88
2022-11-14T04:44:52.929Z,9.10
2022-11-14T04:47:21.348Z,9.57
2022-11-14T04:49:48.072Z,9.70
2022-11-14T04:52:15.595Z,6.38
2022-11-14T04:54:42.403Z,6.28
2022-11-14T04:57:09.299Z,4.63
2022-11-14T04:59:36.086Z,5.10
2022-11-14T05:02:02.911Z,4.18
2022-11-14T05:04:29.705Z,4.57
2022-11-14T05:06:56.584Z,4.28
2022-11-14T05:09:23.427Z,4.60
2022-11-14T05:11:50.206Z,3.92
2022-11-14T05:14:17.036Z,2.85
2022-11-14T05:16:43.841Z,2.60
2022-11-14T05:19:10.599Z,3.17
2022-11-14T05:21:37.477Z,4.82
2022-11-14T05:24:04.596Z,5.82
2022-11-14T05:26:31.423Z,6.20
2022-11-14T05:28:58.239Z,4.47
2022-11-14T05:31:26.473Z,4.25
2022-11-14T05:33:53.267Z,4.68
2022-11-14T05:36:21.013Z,4.10
2022-11-14T05:38:47.761Z,3.50
2022-11-14T05:41:17.458Z,3.33
2022-11-14T05:43:44.706Z,3.95
2022-11-14T05:46:13.567Z,4.25
2022-11-14T05:48:43.065Z,2.95
2022-11-14T05:51:14.499Z,3.47
2022-11-14T05:53:41.833Z,3.33
2022-11-14T05:56:12.229Z,5.30
2022-11-14T05:58:39.548Z,4.70
2022-11-14T06:01:17.545Z,4.47
2022-11-14T06:03:47.057Z,6.05
2022-11-14T06:06:17.642Z,4.57
2022-11-14T06:08:45.057Z,4.78
2022-11-14T06:11:17.109Z,4.47
2022-11-14T06:13:44.377Z,3.78
2022-11-14T06:16:16.816Z,5.53
2022-11-14T06:18:44.199Z,4.35
2022-11-14T06:21:16.698Z,6.22
2022-11-14T06:23:44.232Z,4.75
2022-11-14T06:26:32.073Z,6.82
2022-11-14T06:29:00.612Z,6.68
2022-11-14T06:31:27.899Z,5.45
2022-11-14T06:33:55.088Z,6.75
2022-11-14T06:36:23.369Z,4.97
2022-11-14T06:38:50.340Z,4.65
2022-11-14T06:41:19.784Z,5.53
2022-11-14T06:43:48.912Z,6.95
2022-11-14T06:46:18.118Z,5.72
2022-11-14T06:48:46.267Z,5.20
2022-11-14T06:51:14.697Z,6.43
2022-11-14T06:53:41.894Z,6.22
2022-11-14T06:56:14.603Z,5.20
2022-11-14T06:58:44.183Z,6.05
2022-11-14T07:01:18.087Z,5.05
2022-11-14T07:03:45.764Z,6.00
2022-11-14T07:06:15.907Z,4.78
2022-11-14T07:08:42.968Z,5.32
2022-11-14T07:11:12.110Z,6.20
2022-11-14T07:13:39.195Z,6.50
2022-11-14T07:16:06.394Z,4.95
2022-11-14T07:18:34.361Z,6.30
2022-11-14T07:21:04.777Z,6.80
2022-11-14T07:23:32.951Z,6.82
2022-11-14T07:26:06.962Z,7.13
2022-11-14T07:28:42.576Z,5.72
2022-11-14T07:31:12.667Z,7.25
2022-11-14T07:33:40.633Z,8.82
2022-11-14T07:36:08.471Z,6.30
2022-11-14T07:38:36.713Z,6.75
2022-11-14T07:41:09.716Z,8.90
2022-11-14T07:43:36.890Z,6.05
2022-11-14T07:46:06.834Z,4.55
2022-11-14T07:48:34.016Z,5.00
2022-11-14T07:51:02.309Z,6.10
2022-11-14T07:53:29.346Z,5.72
2022-11-14T07:55:57.345Z,7.03
2022-11-14T07:58:24.328Z,5.65
2022-11-14T08:00:51.427Z,5.53
2022-11-14T08:03:18.358Z,6.00
2022-11-14T08:05:45.342Z,3.45
2022-11-14T08:08:12.137Z,5.40
2022-11-14T08:10:39.097Z,4.55
2022-11-14T08:15:53.873Z,4.07
2022-11-14T08:18:22.096Z,7.40
2022-11-14T08:20:48.889Z,6.60
2022-11-14T08:23:16.183Z,6.25
2022-11-14T08:25:43.101Z,7.78
2022-11-14T08:28:09.933Z,8.57
2022-11-14T08:30:36.828Z,7.45
2022-11-14T08:33:07.322Z,9.27
2022-11-14T08:35:34.487Z,9.60
2022-11-14T08:38:02.740Z,8.68
2022-11-14T08:40:30.298Z,8.05
2022-11-14T08:43:02.062Z,7.03
2022-11-14T08:45:30.014Z,8.05
2022-11-14T08:47:56.948Z,8.80
2022-11-14T08:50:23.991Z,7.43
2022-11-14T08:52:52.025Z,8.27
2022-11-14T08:55:19.735Z,8.80
2022-11-14T08:57:49.753Z,9.15
2022-11-14T09:00:17.650Z,6.70
2022-11-14T09:02:44.782Z,6.88
2022-11-14T09:05:11.758Z,6.30
2022-11-14T09:07:38.565Z,5.20
2022-11-14T09:10:05.884Z,8.45
2022-11-14T09:12:32.828Z,8.50
2022-11-14T09:14:59.782Z,6.68
2022-11-14T09:17:26.740Z,5.30
2022-11-14T09:19:54.096Z,5.25
2022-11-14T09:22:20.925Z,5.95
2022-11-14T09:24:47.835Z,5.18
2022-11-14T09:27:15.104Z,6.97
2022-11-14T09:29:41.911Z,5.93
2022-11-14T09:32:09.521Z,6.10
2022-11-14T09:34:37.405Z,5.07
2022-11-14T09:37:04.263Z,7.28
2022-11-14T09:39:31.096Z,7.35
2022-11-14T09:42:26.331Z,9.00
2022-11-14T09:45:02.493Z,7.30
2022-11-14T09:47:30.650Z,7.78
2022-11-14T09:50:20.653Z,6.55
2022-11-14T09:52:56.473Z,8.00
2022-11-14T09:55:36.575Z,8.48
2022-11-14T09:58:05.127Z,6.15
2022-11-14T10:00:51.987Z,9.50
2022-11-14T10:03:42.699Z,7.72
2022-11-14T10:06:50.816Z,7.15
2022-11-14T10:09:28.838Z,6.25
2022-11-14T10:12:04.564Z,7.00
2022-11-14T10:14:31.348Z,6.82
2022-11-14T10:17:24.472Z,6.53
2022-11-14T10:20:10.183Z,6.72
2022-11-14T10:23:08.482Z,6.00
2022-11-14T10:25:44.174Z,5.40
2022-11-14T10:28:23.360Z,6.70
2022-11-14T10:31:01.758Z,6.78
2022-11-14T10:33:51.095Z,6.72
2022-11-14T10:36:26.442Z,5.20
2022-11-14T10:39:10.963Z,5.80
2022-11-14T10:44:41.939Z,7.78
2022-11-14T10:47:16.036Z,6.68
2022-11-14T10:49:46.895Z,7.93
2022-11-14T10:52:20.162Z,6.35
2022-11-14T10:55:08.163Z,5.97
2022-11-14T10:57:35.352Z,6.93
2022-11-14T11:00:06.401Z,5.93
2022-11-14T11:02:54.334Z,6.40
2022-11-14T11:05:25.036Z,7.00
2022-11-14T11:08:28.609Z,5.45
2022-11-14T11:11:18.209Z,6.78
2022-11-14T11:13:55.899Z,4.82
2022-11-14T11:16:25.547Z,5.43
2022-11-14T11:18:52.536Z,4.30
2022-11-14T11:21:21.907Z,4.70
2022-11-14T11:23:48.748Z,4.43
2022-11-14T11:26:18.582Z,5.20
2022-11-14T11:29:09.929Z,5.82
2022-11-14T11:31:58.012Z,6.10
2022-11-14T11:34:31.029Z,6.15
2022-11-14T11:37:32.317Z,6.25
2022-11-14T11:40:03.019Z,6.28
2022-11-14T11:45:32.995Z,5.05
2022-11-14T11:48:19.212Z,5.40
2022-11-14T11:50:46.069Z,5.47
2022-11-14T11:53:34.340Z,4.85
2022-11-14T11:56:12.504Z,4.57
2022-11-14T11:58:45.157Z,6.22
2022-11-14T12:01:13.785Z,3.60
2022-11-14T12:03:46.556Z,4.57
2022-11-14T12:06:24.940Z,4.10
2022-11-14T12:09:08.398Z,4.15
2022-11-14T12:11:39.465Z,3.60
2022-11-14T12:14:08.939Z,4.25
2022-11-14T12:17:04.984Z,3.88
2022-11-14T12:19:37.220Z,5.63
2022-11-14T12:22:22.132Z,5.72
2022-11-14T12:24:51.900Z,5.03
2022-11-14T12:27:42.608Z,6.03
2022-11-14T12:30:16.310Z,5.53
2022-11-14T12:32:48.162Z,5.68
2022-11-14T12:35:24.571Z,4.57
2022-11-14T12:37:55.974Z,5.60
2022-11-14T12:40:28.931Z,5.15
2022-11-14T12:42:57.378Z,2.95
2022-11-14T12:45:36.519Z,4.97
2022-11-14T12:48:23.290Z,4.03
2022-11-14T12:50:50.332Z,4.38
2022-11-14T12:53:38.080Z,5.50
2022-11-14T12:56:32.929Z,4.10
2022-11-14T12:59:21.415Z,5.28
2022-11-14T13:01:54.580Z,4.55
2022-11-14T13:04:50.163Z,5.22
2022-11-14T13:07:51.494Z,5.45
2022-11-14T13:10:28.389Z,5.13
2022-11-14T13:13:34.911Z,5.30
2022-11-14T13:16:22.212Z,7.18
2022-11-14T13:19:20.493Z,5.40
2022-11-14T13:22:14.231Z,5.20
2022-11-14T13:24:59.363Z,4.28
2022-11-14T13:28:05.234Z,5.07
2022-11-14T13:30:59.870Z,4.53
2022-11-14T13:33:42.131Z,4.15
2022-11-14T13:36:19.487Z,4.10
2022-11-14T13:39:11.265Z,4.50
2022-11-14T13:42:15.453Z,4.40
2022-11-14T13:44:54.279Z,4.97
2022-11-14T13:47:39.968Z,5.32
2022-11-14T13:50:14.408Z,5.07
2022-11-14T13:52:44.644Z,5.72
2022-11-14T13:55:30.091Z,5.55
2022-11-14T13:58:02.845Z,5.55
2022-11-14T14:00:47.811Z,5.20
2022-11-14T14:03:56.369Z,3.40
2022-11-14T14:06:57.873Z,3.42
2022-11-14T14:09:30.543Z,2.22
2022-11-14T14:12:27.486Z,2.90
2022-11-14T14:15:08.217Z,2.90
2022-11-14T14:17:55.806Z,2.60
2022-11-14T14:20:28.624Z,4.57
2022-11-14T14:23:16.816Z,4.30
2022-11-14T14:25:59.980Z,3.83
2022-11-14T14:29:06.245Z,4.20
2022-11-14T14:31:41.529Z,3.53
2022-11-14T14:34:43.715Z,4.60
2022-11-14T14:37:19.660Z,4.88
2022-11-14T14:40:00.793Z,4.85
2022-11-14T14:42:36.152Z,3.97
2022-11-14T14:45:04.531Z,5.90
2022-11-14T14:47:42.921Z,3.97
2022-11-14T14:50:26.769Z,4.38
2022-11-14T14:53:01.030Z,4.38
2022-11-14T14:55:30.552Z,4.32
2022-11-14T14:58:23.918Z,3.92
2022-11-14T15:00:58.130Z,4.75
2022-11-14T15:03:35.449Z,5.10
2022-11-14T15:06:31.285Z,3.88
2022-11-14T15:09:02.207Z,3.85
2022-11-14T15:11:32.549Z,3.65
2022-11-14T15:14:01.468Z,4.25
2022-11-14T15:16:29.703Z,3.60
2022-11-14T15:18:58.085Z,4.05
2022-11-14T15:21:29.955Z,3.53
2022-11-14T15:24:12.399Z,3.78
2022-11-14T15:26:39.827Z,4.30
2022-11-14T15:29:22.862Z,4.80
2022-11-14T15:31:56.564Z,4.70
2022-11-14T15:34:25.491Z,4.13
2022-11-14T15:37:10.797Z,3.65
2022-11-14T15:39:38.431Z,3.85
2022-11-14T15:42:26.735Z,3.47
2022-11-14T15:44:53.747Z,4.47
2022-11-14T15:47:25.314Z,4.60
2022-11-14T15:50:12.513Z,6.30
2022-11-14T15:52:47.407Z,5.90
2022-11-14T15:55:20.615Z,3.90
2022-11-14T15:57:51.989Z,5.30
2022-11-14T16:00:33.696Z,6.95
2022-11-14T16:03:00.513Z,5.55
2022-11-14T16:05:31.354Z,5.57
2022-11-14T16:07:58.284Z,4.80
2022-11-14T16:10:27.464Z,3.70
2022-11-14T16:12:54.263Z,5.30
2022-11-14T16:15:21.783Z,3.75
2022-11-14T16:17:50.444Z,3.83
2022-11-14T16:20:23.491Z,3.15
2022-11-14T16:22:53.480Z,3.08
2022-11-14T16:25:31.648Z,2.88
2022-11-14T16:27:58.477Z,2.78
2022-11-14T16:30:26.038Z,2.78
2022-11-14T16:32:52.904Z,3.17
2022-11-14T16:35:20.891Z,2.47
2022-11-14T16:37:48.270Z,3.03
2022-11-14T16:40:19.362Z,4.82
2022-11-14T16:42:46.713Z,3.42
2022-11-14T16:45:13.736Z,3.92
2022-11-14T16:47:40.725Z,4.15
2022-11-14T16:50:07.787Z,2.67
2022-11-14T16:52:34.703Z,2.75
2022-11-14T16:55:01.853Z,2.35
2022-11-14T16:57:28.831Z,3.15
2022-11-14T16:59:57.253Z,2.72
2022-11-14T17:02:24.636Z,3.63
2022-11-14T17:04:51.787Z,2.88
2022-11-14T17:07:22.693Z,3.35
2022-11-14T17:09:49.929Z,4.45
2022-11-14T17:12:16.775Z,5.05
2022-11-14T17:14:43.545Z,7.13
2022-11-14T17:17:10.364Z,5.35
2022-11-14T17:19:38.995Z,7.38
2022-11-14T17:22:05.787Z,4.47
2022-11-14T17:24:32.602Z,4.63
2022-11-14T17:26:59.410Z,4.40
2022-11-14T17:29:26.252Z,3.72
2022-11-14T17:31:53.119Z,5.32
2022-11-14T17:34:19.929Z,4.80
2022-11-14T17:36:46.759Z,3.85
2022-11-14T17:39:13.550Z,4.72
2022-11-14T17:41:40.507Z,4.28
2022-11-14T17:44:07.423Z,4.85
2022-11-14T17:46:34.257Z,4.35
2022-11-14T17:49:01.775Z,4.43
2022-11-14T17:51:28.969Z,3.58
2022-11-14T17:53:55.748Z,3.22
2022-11-14T17:56:25.425Z,2.78
2022-11-14T17:58:53.609Z,3.22
2022-11-14T18:01:23.293Z,1.98
2022-11-14T18:03:50.858Z,1.88
2022-11-14T18:06:19.844Z,2.05
2022-11-14T18:08:47.361Z,1.83
2022-11-14T18:11:16.153Z,1.67
2022-11-14T18:13:43.145Z,2.70
2022-11-14T18:16:16.328Z,2.00
2022-11-14T18:18:43.425Z,1.88
2022-11-14T18:21:17.123Z,1.50
2022-11-14T18:23:49.613Z,1.38
2022-11-14T18:26:18.531Z,1.40
2022-11-14T18:28:45.565Z,1.20
2022-11-14T18:31:13.415Z,1.00
2022-11-14T18:33:41.927Z,1.40
2022-11-14T18:36:12.160Z,1.23
2022-11-14T18:38:39.514Z,1.42
2022-11-14T18:41:13.927Z,1.60
2022-11-14T18:43:41.202Z,1.73
2022-11-14T18:46:15.043Z,1.88
2022-11-14T18:48:45.520Z,1.95
2022-11-14T18:51:24.778Z,1.90
2022-11-14T18:53:51.793Z,3.72
2022-11-14T18:56:20.863Z,2.70
2022-11-14T18:58:47.940Z,3.47
2022-11-14T19:01:23.943Z,4.65
2022-11-14T19:03:52.367Z,5.13
2022-11-14T19:06:19.777Z,3.80
2022-11-14T19:08:46.975Z,5.70
2022-11-14T19:11:35.748Z,6.35
2022-11-14T19:14:04.850Z,7.03
2022-11-14T19:16:33.698Z,10.07
2022-11-14T19:19:00.642Z,7.70
2022-11-14T19:21:28.129Z,7.90
2022-11-14T19:23:55.059Z,7.28
2022-11-14T19:26:23.345Z,9.73
2022-11-14T19:28:50.229Z,6.13
2022-11-14T19:31:17.853Z,7.13
2022-11-14T19:33:47.346Z,8.73
2022-11-14T19:36:38.493Z,6.25
2022-11-14T19:39:07.927Z,8.73
2022-11-14T19:41:34.889Z,8.02
2022-11-14T19:44:02.846Z,8.48
2022-11-14T19:46:30.034Z,8.60
2022-11-14T19:48:58.296Z,5.60
2022-11-14T19:51:25.615Z,4.00
2022-11-14T19:53:55.827Z,3.42
2022-11-14T19:56:23.787Z,3.92
2022-11-14T19:58:52.237Z,3.35
2022-11-14T20:01:21.770Z,2.42
2022-11-14T20:03:55.136Z,3.25
2022-11-14T20:06:25.055Z,4.45
2022-11-14T20:08:55.261Z,4.05
2022-11-14T20:11:23.114Z,4.18
2022-11-14T20:13:50.100Z,3.45
2022-11-14T20:16:19.398Z,3.78
2022-11-14T20:18:57.465Z,4.65
2022-11-14T20:21:27.562Z,4.55
2022-11-14T20:23:54.747Z,3.30
2022-11-14T20:26:22.406Z,3.95
2022-11-14T20:28:52.195Z,4.13
2022-11-14T20:31:24.583Z,3.40
2022-11-14T20:33:52.967Z,3.15
2022-11-14T20:36:22.601Z,3.25
2022-11-14T20:38:50.260Z,2.85
2022-11-14T20:41:17.820Z,3.00
2022-11-14T20:43:45.532Z,3.58
2022-11-14T20:46:16.258Z,3.95
2022-11-14T20:48:43.721Z,3.47
2022-11-14T20:51:36.834Z,3.33
2022-11-14T20:54:03.872Z,4.50
2022-11-14T20:56:30.627Z,2.33
2022-11-14T20:58:57.443Z,2.88
2022-11-14T21:01:24.282Z,2.67
2022-11-14T21:03:52.089Z,4.53
2022-11-14T21:06:18.905Z,4.47
2022-11-14T21:08:45.700Z,3.58
2022-11-14T21:11:15.860Z,2.92
2022-11-14T21:14:04.234Z,2.50
2022-11-14T21:16:33.657Z,2.67
2022-11-14T21:19:02.037Z,2.53
2022-11-14T21:21:33.117Z,2.60
2022-11-14T21:23:59.921Z,3.83
2022-11-14T21:26:31.447Z,2.72
2022-11-14T21:29:01.614Z,4.47
2022-11-14T21:31:34.919Z,3.13
2022-11-14T21:34:07.382Z,3.88
2022-11-14T21:36:49.677Z,6.35
2022-11-14T21:39:17.799Z,3.65
2022-11-14T21:41:45.708Z,4.60
2022-11-14T21:44:14.661Z,5.63
2022-11-14T21:46:41.638Z,3.53
2022-11-14T21:49:09.286Z,2.60
2022-11-14T21:51:36.176Z,3.20
2022-11-14T21:54:03.092Z,3.65
2022-11-14T21:56:31.749Z,3.17
2022-11-14T21:59:16.113Z,4.82
2022-11-14T22:02:09.553Z,3.67
2022-11-14T22:04:36.798Z,5.22
2022-11-14T22:07:06.298Z,4.15
2022-11-14T22:09:34.103Z,4.35
2022-11-14T22:12:01.745Z,3.58
2022-11-14T22:14:29.511Z,3.63
2022-11-14T22:16:57.899Z,2.92
2022-11-14T22:19:24.979Z,2.80
2022-11-14T22:21:52.044Z,2.92
2022-11-14T22:24:18.871Z,2.95
2022-11-14T22:26:45.617Z,3.13
2022-11-14T22:29:12.401Z,2.33
2022-11-14T22:31:39.205Z,2.92
2022-11-14T22:34:06.216Z,3.05
2022-11-14T22:36:33.508Z,2.72
2022-11-14T22:39:00.423Z,2.28
2022-11-14T22:41:33.235Z,2.15
2022-11-14T22:44:01.919Z,2.33
2022-11-14T22:46:29.096Z,2.00
2022-11-14T22:48:56.144Z,3.65
2022-11-14T22:51:25.303Z,2.17
2022-11-14T22:53:54.037Z,1.60
2022-11-14T22:56:23.875Z,2.38
2022-11-14T22:58:50.770Z,1.50
2022-11-14T23:01:31.927Z,1.35
2022-11-14T23:04:01.106Z,1.25
2022-11-14T23:06:29.507Z,1.00
2022-11-14T23:08:56.624Z,1.30
2022-11-14T23:11:26.419Z,1.13
2022-11-14T23:13:55.146Z,1.48
2022-11-14T23:16:29.487Z,1.95
2022-11-14T23:18:58.366Z,2.65
2022-11-14T23:21:28.069Z,2.03
2022-11-14T23:23:59.863Z,1.25
2022-11-14T23:26:28.208Z,1.58
2022-11-14T23:28:55.174Z,1.38
2022-11-14T23:31:22.755Z,1.33
2022-11-14T23:33:52.002Z,1.55
2022-11-14T23:36:19.129Z,1.25
2022-11-14T23:38:45.922Z,1.40
2022-11-14T23:41:16.959Z,1.17
2022-11-14T23:43:43.859Z,1.08
2022-11-14T23:46:10.725Z,1.25
2022-11-14T23:48:37.458Z,1.67
2022-11-14T23:51:04.520Z,1.63
2022-11-14T23:53:31.599Z,1.92
2022-11-14T23:56:01.100Z,2.75
2022-11-14T23:58:29.389Z,2.90
